sensor_id;sensor_type;location;lat;lon;timestamp;pressure;altitude;pressure_sealevel;temperature;humidity
32033;BME280;31720;52.638;9.216;2023-05-24T00:02:38;101912.94;;;8.85;100.00
32033;BME280;31720;52.638;9.216;2023-05-24T00:05:41;101913.00;;;8.84;100.00
32033;BME280;31720;52.638;9.216;2023-05-24T00:08:42;101907.81;;;8.82;100.00
32033;BME280;31720;52.638;9.216;2023-05-24T00:11:43;101914.56;;;8.89;100.00
32033;BME280;31720;52.638;9.216;2023-05-24T00:14:45;101913.78;;;8.87;100.00
32033;BME280;31720;52.638;9.216;2023-05-24T00:17:48;101911.28;;;8.83;100.00
32033;BME280;31720;52.638;9.216;2023-05-24T00:20:49;101907.75;;;8.84;100.00
32033;BME280;31720;52.638;9.216;2023-05-24T00:23:50;101910.84;;;8.98;100.00
32033;BME280;31720;52.638;9.216;2023-05-24T00:26:52;101907.44;;;8.95;100.00
32033;BME280;31720;52.638;9.216;2023-05-24T00:29:53;101907.69;;;8.85;100.00
32033;BME280;31720;52.638;9.216;2023-05-24T00:32:56;101897.34;;;8.81;100.00
32033;BME280;31720;52.638;9.216;2023-05-24T00:35:57;101901.69;;;8.82;100.00
32033;BME280;31720;52.638;9.216;2023-05-24T00:38:59;101897.44;;;8.78;100.00
32033;BME280;31720;52.638;9.216;2023-05-24T00:42:01;101895.75;;;8.75;100.00
32033;BME280;31720;52.638;9.216;2023-05-24T00:45:02;101892.31;;;8.73;100.00
32033;BME280;31720;52.638;9.216;2023-05-24T00:48:06;101896.53;;;8.79;100.00
32033;BME280;31720;52.638;9.216;2023-05-24T00:51:07;101881.59;;;8.81;100.00
32033;BME280;31720;52.638;9.216;2023-05-24T00:54:09;101895.50;;;8.84;100.00
32033;BME280;31720;52.638;9.216;2023-05-24T00:57:13;101886.84;;;8.81;100.00
32033;BME280;31720;52.638;9.216;2023-05-24T01:00:15;101886.91;;;8.79;100.00
32033;BME280;31720;52.638;9.216;2023-05-24T01:03:18;101887.75;;;8.81;100.00
32033;BME280;31720;52.638;9.216;2023-05-24T01:06:19;101891.94;;;8.87;100.00
32033;BME280;31720;52.638;9.216;2023-05-24T01:09:28;101888.63;;;8.80;100.00
32033;BME280;31720;52.638;9.216;2023-05-24T01:12:45;101892.09;;;8.81;100.00
32033;BME280;31720;52.638;9.216;2023-05-24T01:15:57;101889.59;;;8.76;100.00
32033;BME280;31720;52.638;9.216;2023-05-24T01:19:04;101887.63;;;8.84;100.00
32033;BME280;31720;52.638;9.216;2023-05-24T01:22:27;101893.66;;;8.88;100.00
32033;BME280;31720;52.638;9.216;2023-05-24T01:25:40;101890.56;;;8.74;100.00
32033;BME280;31720;52.638;9.216;2023-05-24T01:28:47;101879.63;;;8.91;100.00
32033;BME280;31720;52.638;9.216;2023-05-24T01:31:49;101880.50;;;8.89;100.00
32033;BME280;31720;52.638;9.216;2023-05-24T01:34:50;101884.09;;;8.87;100.00
32033;BME280;31720;52.638;9.216;2023-05-24T01:37:52;101874.38;;;8.91;100.00
32033;BME280;31720;52.638;9.216;2023-05-24T01:41:04;101872.56;;;8.93;100.00
32033;BME280;31720;52.638;9.216;2023-05-24T01:44:13;101871.22;;;8.78;100.00
32033;BME280;31720;52.638;9.216;2023-05-24T01:47:18;101870.28;;;8.80;100.00
32033;BME280;31720;52.638;9.216;2023-05-24T01:50:25;101874.50;;;8.86;100.00
32033;BME280;31720;52.638;9.216;2023-05-24T01:53:32;101865.75;;;8.85;100.00
32033;BME280;31720;52.638;9.216;2023-05-24T01:56:34;101872.09;;;8.78;100.00
32033;BME280;31720;52.638;9.216;2023-05-24T01:59:40;101860.88;;;8.73;100.00
32033;BME280;31720;52.638;9.216;2023-05-24T02:02:42;101858.00;;;8.82;100.00
32033;BME280;31720;52.638;9.216;2023-05-24T02:05:44;101858.78;;;8.86;100.00
32033;BME280;31720;52.638;9.216;2023-05-24T02:08:45;101851.91;;;8.82;100.00
32033;BME280;31720;52.638;9.216;2023-05-24T02:11:47;101848.06;;;8.94;100.00
32033;BME280;31720;52.638;9.216;2023-05-24T02:14:49;101846.53;;;8.86;100.00
32033;BME280;31720;52.638;9.216;2023-05-24T02:17:51;101847.50;;;8.82;100.00
32033;BME280;31720;52.638;9.216;2023-05-24T02:20:53;101851.13;;;8.78;100.00
32033;BME280;31720;52.638;9.216;2023-05-24T02:23:55;101841.56;;;8.76;100.00
32033;BME280;31720;52.638;9.216;2023-05-24T02:26:56;101846.00;;;8.74;100.00
32033;BME280;31720;52.638;9.216;2023-05-24T02:29:59;101846.22;;;8.66;100.00
32033;BME280;31720;52.638;9.216;2023-05-24T02:33:00;101845.47;;;8.61;100.00
32033;BME280;31720;52.638;9.216;2023-05-24T02:36:02;101858.63;;;8.59;100.00
32033;BME280;31720;52.638;9.216;2023-05-24T02:39:03;101845.44;;;8.62;100.00
32033;BME280;31720;52.638;9.216;2023-05-24T02:42:05;101840.78;;;8.74;100.00
32033;BME280;31720;52.638;9.216;2023-05-24T02:45:09;101847.94;;;8.67;100.00
32033;BME280;31720;52.638;9.216;2023-05-24T02:48:11;101845.94;;;8.77;100.00
32033;BME280;31720;52.638;9.216;2023-05-24T02:51:12;101849.69;;;8.67;100.00
32033;BME280;31720;52.638;9.216;2023-05-24T02:54:14;101842.78;;;8.64;100.00
32033;BME280;31720;52.638;9.216;2023-05-24T02:57:16;101849.63;;;8.70;100.00
32033;BME280;31720;52.638;9.216;2023-05-24T03:00:20;101851.31;;;8.71;100.00
32033;BME280;31720;52.638;9.216;2023-05-24T03:03:21;101850.91;;;8.55;100.00
32033;BME280;31720;52.638;9.216;2023-05-24T03:06:23;101847.19;;;8.62;100.00
32033;BME280;31720;52.638;9.216;2023-05-24T03:09:24;101840.97;;;8.66;100.00
32033;BME280;31720;52.638;9.216;2023-05-24T03:12:26;101842.78;;;8.64;100.00
32033;BME280;31720;52.638;9.216;2023-05-24T03:15:29;101841.28;;;8.55;100.00
32033;BME280;31720;52.638;9.216;2023-05-24T03:18:30;101842.66;;;8.69;100.00
32033;BME280;31720;52.638;9.216;2023-05-24T03:21:32;101841.94;;;8.63;100.00
32033;BME280;31720;52.638;9.216;2023-05-24T03:24:33;101838.31;;;8.68;100.00
32033;BME280;31720;52.638;9.216;2023-05-24T03:27:35;101842.88;;;8.61;100.00
32033;BME280;31720;52.638;9.216;2023-05-24T03:30:37;101829.47;;;8.41;100.00
32033;BME280;31720;52.638;9.216;2023-05-24T03:33:39;101839.13;;;8.35;100.00
32033;BME280;31720;52.638;9.216;2023-05-24T03:36:40;101838.72;;;8.52;100.00
32033;BME280;31720;52.638;9.216;2023-05-24T03:39:42;101837.69;;;8.58;100.00
32033;BME280;31720;52.638;9.216;2023-05-24T03:42:43;101835.84;;;8.63;100.00
32033;BME280;31720;52.638;9.216;2023-05-24T03:45:46;101839.56;;;8.54;100.00
32033;BME280;31720;52.638;9.216;2023-05-24T03:48:47;101837.94;;;8.49;100.00
32033;BME280;31720;52.638;9.216;2023-05-24T03:51:49;101834.41;;;8.51;100.00
32033;BME280;31720;52.638;9.216;2023-05-24T03:54:50;101838.72;;;8.52;100.00
32033;BME280;31720;52.638;9.216;2023-05-24T03:57:52;101836.13;;;8.52;100.00
32033;BME280;31720;52.638;9.216;2023-05-24T04:00:54;101844.69;;;8.57;100.00
32033;BME280;31720;52.638;9.216;2023-05-24T04:03:56;101840.19;;;8.62;100.00
32033;BME280;31720;52.638;9.216;2023-05-24T04:06:57;101845.44;;;8.62;100.00
32033;BME280;31720;52.638;9.216;2023-05-24T04:09:59;101846.66;;;8.49;100.00
32033;BME280;31720;52.638;9.216;2023-05-24T04:13:00;101848.44;;;8.49;100.00
32033;BME280;31720;52.638;9.216;2023-05-24T04:16:03;101856.94;;;8.57;100.00
32033;BME280;31720;52.638;9.216;2023-05-24T04:19:04;101856.09;;;8.56;100.00
32033;BME280;31720;52.638;9.216;2023-05-24T04:22:06;101850.19;;;8.48;100.00
32033;BME280;31720;52.638;9.216;2023-05-24T04:25:07;101857.31;;;8.43;100.00
32033;BME280;31720;52.638;9.216;2023-05-24T04:28:09;101853.59;;;8.52;100.00
32033;BME280;31720;52.638;9.216;2023-05-24T04:31:12;101856.13;;;8.55;100.00
32033;BME280;31720;52.638;9.216;2023-05-24T04:34:14;101857.13;;;8.51;100.00
32033;BME280;31720;52.638;9.216;2023-05-24T04:37:16;101848.31;;;8.53;100.00
32033;BME280;31720;52.638;9.216;2023-05-24T04:40:17;101852.66;;;8.54;100.00
32033;BME280;31720;52.638;9.216;2023-05-24T04:43:19;101853.41;;;8.59;100.00
32033;BME280;31720;52.638;9.216;2023-05-24T04:46:22;101849.88;;;8.60;100.00
32033;BME280;31720;52.638;9.216;2023-05-24T04:49:25;101852.31;;;8.67;100.00
32033;BME280;31720;52.638;9.216;2023-05-24T04:52:26;101847.19;;;8.63;100.00
32033;BME280;31720;52.638;9.216;2023-05-24T04:55:27;101854.78;;;8.73;100.00
32033;BME280;31720;52.638;9.216;2023-05-24T04:58:29;101865.16;;;8.76;100.00
32033;BME280;31720;52.638;9.216;2023-05-24T05:01:31;101866.66;;;8.84;100.00
32033;BME280;31720;52.638;9.216;2023-05-24T05:04:33;101877.03;;;8.89;100.00
32033;BME280;31720;52.638;9.216;2023-05-24T05:07:35;101868.16;;;8.93;100.00
32033;BME280;31720;52.638;9.216;2023-05-24T05:10:37;101861.59;;;9.09;100.00
32033;BME280;31720;52.638;9.216;2023-05-24T05:13:38;101864.03;;;9.15;100.00
32033;BME280;31720;52.638;9.216;2023-05-24T05:16:41;101873.31;;;9.27;100.00
32033;BME280;31720;52.638;9.216;2023-05-24T05:19:43;101874.81;;;9.34;100.00
32033;BME280;31720;52.638;9.216;2023-05-24T05:22:45;101878.31;;;9.35;100.00
32033;BME280;31720;52.638;9.216;2023-05-24T05:25:47;101875.50;;;9.41;100.00
32033;BME280;31720;52.638;9.216;2023-05-24T05:28:48;101872.19;;;9.36;100.00
32033;BME280;31720;52.638;9.216;2023-05-24T05:31:51;101875.13;;;9.53;100.00
32033;BME280;31720;52.638;9.216;2023-05-24T05:34:53;101877.03;;;9.48;100.00
32033;BME280;31720;52.638;9.216;2023-05-24T05:37:54;101870.22;;;9.43;100.00
32033;BME280;31720;52.638;9.216;2023-05-24T05:40:55;101876.41;;;9.40;100.00
32033;BME280;31720;52.638;9.216;2023-05-24T05:43:57;101875.94;;;9.27;100.00
32033;BME280;31720;52.638;9.216;2023-05-24T05:46:59;101880.75;;;9.41;100.00
32033;BME280;31720;52.638;9.216;2023-05-24T05:50:03;101871.16;;;9.40;100.00
32033;BME280;31720;52.638;9.216;2023-05-24T05:53:04;101881.50;;;9.45;100.00
32033;BME280;31720;52.638;9.216;2023-05-24T05:56:06;101884.13;;;9.45;100.00
32033;BME280;31720;52.638;9.216;2023-05-24T05:59:07;101876.13;;;9.49;100.00
32033;BME280;31720;52.638;9.216;2023-05-24T06:02:10;101886.81;;;9.43;100.00
32033;BME280;31720;52.638;9.216;2023-05-24T06:05:11;101889.50;;;9.40;100.00
32033;BME280;31720;52.638;9.216;2023-05-24T06:08:13;101886.59;;;9.49;100.00
32033;BME280;31720;52.638;9.216;2023-05-24T06:11:14;101889.78;;;9.60;100.00
32033;BME280;31720;52.638;9.216;2023-05-24T06:14:15;101888.84;;;9.63;100.00
32033;BME280;31720;52.638;9.216;2023-05-24T06:17:20;101898.41;;;9.64;100.00
32033;BME280;31720;52.638;9.216;2023-05-24T06:20:23;101899.34;;;9.63;100.00
32033;BME280;31720;52.638;9.216;2023-05-24T06:23:25;101899.38;;;9.61;100.00
32033;BME280;31720;52.638;9.216;2023-05-24T06:26:26;101908.81;;;9.67;100.00
32033;BME280;31720;52.638;9.216;2023-05-24T06:29:27;101905.75;;;9.81;100.00
32033;BME280;31720;52.638;9.216;2023-05-24T06:32:30;101912.06;;;9.75;100.00
32033;BME280;31720;52.638;9.216;2023-05-24T06:35:31;101908.66;;;9.72;100.00
32033;BME280;31720;52.638;9.216;2023-05-24T06:38:32;101912.19;;;9.71;100.00
32033;BME280;31720;52.638;9.216;2023-05-24T06:41:35;101916.53;;;9.72;100.00
32033;BME280;31720;52.638;9.216;2023-05-24T06:44:36;101921.00;;;9.70;100.00
32033;BME280;31720;52.638;9.216;2023-05-24T06:47:39;101912.06;;;9.75;100.00
32033;BME280;31720;52.638;9.216;2023-05-24T06:50:40;101924.47;;;9.70;100.00
32033;BME280;31720;52.638;9.216;2023-05-24T06:53:42;101925.47;;;9.66;100.00
32033;BME280;31720;52.638;9.216;2023-05-24T06:56:44;101933.88;;;9.77;100.00
32033;BME280;31720;52.638;9.216;2023-05-24T06:59:45;101928.63;;;9.77;100.00
32033;BME280;31720;52.638;9.216;2023-05-24T07:02:48;101935.81;;;9.72;100.00
32033;BME280;31720;52.638;9.216;2023-05-24T07:05:49;101929.84;;;9.65;100.00
32033;BME280;31720;52.638;9.216;2023-05-24T07:08:50;101934.19;;;9.66;100.00
32033;BME280;31720;52.638;9.216;2023-05-24T07:11:52;101935.06;;;9.67;100.00
32033;BME280;31720;52.638;9.216;2023-05-24T07:14:53;101938.50;;;9.69;100.00
32033;BME280;31720;52.638;9.216;2023-05-24T07:17:57;101921.00;;;9.70;100.00
32033;BME280;31720;52.638;9.216;2023-05-24T07:20:59;101922.81;;;9.68;100.00
32033;BME280;31720;52.638;9.216;2023-05-24T07:24:01;101936.75;;;9.70;100.00
32033;BME280;31720;52.638;9.216;2023-05-24T07:27:03;101934.97;;;9.70;100.00
32033;BME280;31720;52.638;9.216;2023-05-24T07:30:06;101939.44;;;9.66;100.00
32033;BME280;31720;52.638;9.216;2023-05-24T07:33:09;101936.03;;;9.64;100.00
32033;BME280;31720;52.638;9.216;2023-05-24T07:36:10;101937.59;;;9.70;100.00
32033;BME280;31720;52.638;9.216;2023-05-24T07:39:11;101936.03;;;9.64;100.00
32033;BME280;31720;52.638;9.216;2023-05-24T07:42:15;101933.34;;;9.66;100.00
32033;BME280;31720;52.638;9.216;2023-05-24T07:45:16;101944.75;;;9.65;100.00
32033;BME280;31720;52.638;9.216;2023-05-24T07:48:19;101937.78;;;9.64;100.00
32033;BME280;31720;52.638;9.216;2023-05-24T07:51:20;101943.84;;;9.66;100.00
32033;BME280;31720;52.638;9.216;2023-05-24T07:54:22;101948.94;;;9.71;100.00
32033;BME280;31720;52.638;9.216;2023-05-24T07:57:23;101950.00;;;9.65;100.00
32033;BME280;31720;52.638;9.216;2023-05-24T08:00:24;101956.16;;;9.64;100.00
32033;BME280;31720;52.638;9.216;2023-05-24T08:03:27;101950.72;;;9.70;100.00
32033;BME280;31720;52.638;9.216;2023-05-24T08:06:28;101953.25;;;9.73;100.00
32033;BME280;31720;52.638;9.216;2023-05-24T08:09:31;101955.88;;;9.73;100.00
32033;BME280;31720;52.638;9.216;2023-05-24T08:12:34;101955.88;;;9.73;100.00
32033;BME280;31720;52.638;9.216;2023-05-24T08:15:36;101961.63;;;9.86;100.00
32033;BME280;31720;52.638;9.216;2023-05-24T08:18:38;101966.91;;;9.84;100.00
32033;BME280;31720;52.638;9.216;2023-05-24T08:21:40;101963.13;;;9.93;100.00
32033;BME280;31720;52.638;9.216;2023-05-24T08:24:42;101955.19;;;9.95;100.00
32033;BME280;31720;52.638;9.216;2023-05-24T08:27:44;101963.84;;;9.98;100.00
32033;BME280;31720;52.638;9.216;2023-05-24T08:30:45;101961.13;;;10.01;100.00
32033;BME280;31720;52.638;9.216;2023-05-24T08:33:48;101966.25;;;10.06;100.00
32033;BME280;31720;52.638;9.216;2023-05-24T08:36:50;101961.63;;;10.14;100.00
32033;BME280;31720;52.638;9.216;2023-05-24T08:39:52;101965.09;;;10.14;100.00
32033;BME280;31720;52.638;9.216;2023-05-24T08:42:54;101960.50;;;10.21;100.00
32033;BME280;31720;52.638;9.216;2023-05-24T08:46:00;101968.44;;;10.20;100.00
32033;BME280;31720;52.638;9.216;2023-05-24T08:49:04;101966.47;;;10.28;100.00
32033;BME280;31720;52.638;9.216;2023-05-24T08:52:06;101969.94;;;10.28;100.00
32033;BME280;31720;52.638;9.216;2023-05-24T08:55:08;101960.94;;;10.35;100.00
32033;BME280;31720;52.638;9.216;2023-05-24T08:58:11;101970.19;;;10.47;100.00
32033;BME280;31720;52.638;9.216;2023-05-24T09:01:13;101970.13;;;10.49;100.00
32033;BME280;31720;52.638;9.216;2023-05-24T09:04:18;101968.16;;;10.55;100.00
32033;BME280;31720;52.638;9.216;2023-05-24T09:07:21;101975.03;;;10.59;100.00
32033;BME280;31720;52.638;9.216;2023-05-24T09:10:24;101976.91;;;10.56;100.00
32033;BME280;31720;52.638;9.216;2023-05-24T09:13:27;101976.81;;;10.59;100.00
32033;BME280;31720;52.638;9.216;2023-05-24T09:16:28;101982.72;;;10.65;100.00
32033;BME280;31720;52.638;9.216;2023-05-24T09:19:31;101982.56;;;10.70;100.00
32033;BME280;31720;52.638;9.216;2023-05-24T09:22:33;101975.81;;;10.63;100.00
32033;BME280;31720;52.638;9.216;2023-05-24T09:25:42;101981.84;;;10.65;100.00
32033;BME280;31720;52.638;9.216;2023-05-24T09:28:46;101976.50;;;10.68;100.00
32033;BME280;31720;52.638;9.216;2023-05-24T09:31:48;101977.91;;;10.78;100.00
32033;BME280;31720;52.638;9.216;2023-05-24T09:34:53;101978.59;;;10.83;100.00
32033;BME280;31720;52.638;9.216;2023-05-24T09:37:54;101986.56;;;10.82;100.00
32033;BME280;31720;52.638;9.216;2023-05-24T09:41:01;101981.84;;;10.90;100.00
32033;BME280;31720;52.638;9.216;2023-05-24T09:44:03;101982.19;;;10.81;100.00
32033;BME280;31720;52.638;9.216;2023-05-24T09:47:06;101985.16;;;10.97;100.00
32033;BME280;31720;52.638;9.216;2023-05-24T09:50:13;101982.53;;;10.97;100.00
32033;BME280;31720;52.638;9.216;2023-05-24T09:53:16;101984.28;;;10.96;100.00
32033;BME280;31720;52.638;9.216;2023-05-24T09:56:18;101981.34;;;11.05;100.00
32033;BME280;31720;52.638;9.216;2023-05-24T09:59:20;101978.44;;;11.13;100.00
32033;BME280;31720;52.638;9.216;2023-05-24T10:02:22;101990.16;;;11.04;100.00
32033;BME280;31720;52.638;9.216;2023-05-24T10:05:25;101988.09;;;11.12;100.00
32033;BME280;31720;52.638;9.216;2023-05-24T10:08:27;101990.56;;;11.17;100.00
32033;BME280;31720;52.638;9.216;2023-05-24T10:11:28;101985.19;;;11.20;100.00
32033;BME280;31720;52.638;9.216;2023-05-24T10:14:31;101986.53;;;11.32;100.00
32033;BME280;31720;52.638;9.216;2023-05-24T10:17:35;101996.38;;;11.50;100.00
32033;BME280;31720;52.638;9.216;2023-05-24T10:20:38;101993.34;;;11.61;100.00
32033;BME280;31720;52.638;9.216;2023-05-24T10:23:43;101997.91;;;11.56;100.00
32033;BME280;31720;52.638;9.216;2023-05-24T10:26:45;101994.66;;;11.49;100.00
32033;BME280;31720;52.638;9.216;2023-05-24T10:29:56;101986.97;;;11.66;100.00
32033;BME280;31720;52.638;9.216;2023-05-24T10:33:00;101996.38;;;11.74;100.00
32033;BME280;31720;52.638;9.216;2023-05-24T10:36:06;101996.25;;;11.77;100.00
32033;BME280;31720;52.638;9.216;2023-05-24T10:39:09;102000.59;;;11.78;100.00
32033;BME280;31720;52.638;9.216;2023-05-24T10:42:12;101999.63;;;11.80;100.00
32033;BME280;31720;52.638;9.216;2023-05-24T10:45:30;101996.97;;;11.80;100.00
32033;BME280;31720;52.638;9.216;2023-05-24T10:48:33;102001.25;;;11.84;100.00
32033;BME280;31720;52.638;9.216;2023-05-24T10:51:38;102004.63;;;11.88;100.00
32033;BME280;31720;52.638;9.216;2023-05-24T10:54:40;101994.34;;;11.80;100.00
32033;BME280;31720;52.638;9.216;2023-05-24T10:57:41;101998.72;;;11.81;100.00
32033;BME280;31720;52.638;9.216;2023-05-24T11:00:43;102003.09;;;11.81;100.00
32033;BME280;31720;52.638;9.216;2023-05-24T11:03:45;102001.13;;;11.87;100.00
32033;BME280;31720;52.638;9.216;2023-05-24T11:06:49;102001.94;;;11.89;100.00
32033;BME280;31720;52.638;9.216;2023-05-24T11:09:55;102002.75;;;11.91;100.00
32033;BME280;31720;52.638;9.216;2023-05-24T11:12:59;101997.22;;;11.98;100.00
32033;BME280;31720;52.638;9.216;2023-05-24T11:16:01;101998.63;;;12.06;100.00
32033;BME280;31720;52.638;9.216;2023-05-24T11:19:13;101993.56;;;12.24;100.00
32033;BME280;31720;52.638;9.216;2023-05-24T11:22:19;102001.84;;;12.36;100.00
32033;BME280;31720;52.638;9.216;2023-05-24T11:25:20;101991.09;;;12.41;100.00
32033;BME280;31720;52.638;9.216;2023-05-24T11:28:22;101993.91;;;12.58;100.00
32033;BME280;31720;52.638;9.216;2023-05-24T11:31:26;101986.84;;;12.59;100.00
32033;BME280;31720;52.638;9.216;2023-05-24T11:34:27;101984.69;;;12.68;100.00
32033;BME280;31720;52.638;9.216;2023-05-24T11:37:30;101981.66;;;12.78;100.00
32033;BME280;31720;52.638;9.216;2023-05-24T11:40:33;101971.47;;;12.89;100.00
32033;BME280;31720;52.638;9.216;2023-05-24T11:43:34;101978.19;;;13.16;100.00
32033;BME280;31720;52.638;9.216;2023-05-24T11:46:37;101981.38;;;13.25;100.00
32033;BME280;31720;52.638;9.216;2023-05-24T11:49:39;101984.72;;;13.08;100.00
32033;BME280;31720;52.638;9.216;2023-05-24T11:52:41;101982.56;;;12.97;100.00
32033;BME280;31720;52.638;9.216;2023-05-24T11:55:43;101992.78;;;12.84;100.00
32033;BME280;31720;52.638;9.216;2023-05-24T11:58:47;101992.25;;;12.76;100.00
32033;BME280;31720;52.638;9.216;2023-05-24T12:01:56;101992.19;;;12.78;100.00
32033;BME280;31720;52.638;9.216;2023-05-24T12:05:05;101994.88;;;12.76;100.00
32033;BME280;31720;52.638;9.216;2023-05-24T12:08:11;102003.88;;;12.72;100.00
32033;BME280;31720;52.638;9.216;2023-05-24T12:11:14;102004.84;;;12.69;100.00
32033;BME280;31720;52.638;9.216;2023-05-24T12:14:17;102006.63;;;12.69;100.00
32033;BME280;31720;52.638;9.216;2023-05-24T12:17:19;102003.34;;;12.64;100.00
32033;BME280;31720;52.638;9.216;2023-05-24T12:20:21;102008.41;;;12.68;100.00
32033;BME280;31720;52.638;9.216;2023-05-24T12:23:24;102004.38;;;12.80;100.00
32033;BME280;31720;52.638;9.216;2023-05-24T12:26:26;102000.69;;;12.84;100.00
32033;BME280;31720;52.638;9.216;2023-05-24T12:29:31;102001.03;;;12.97;100.00
32033;BME280;31720;52.638;9.216;2023-05-24T12:32:33;101994.56;;;13.04;100.00
32033;BME280;31720;52.638;9.216;2023-05-24T12:35:34;101990.06;;;13.06;100.00
32033;BME280;31720;52.638;9.216;2023-05-24T12:38:37;101995.75;;;13.17;100.00
32033;BME280;31720;52.638;9.216;2023-05-24T12:41:39;102000.97;;;13.19;100.00
32033;BME280;31720;52.638;9.216;2023-05-24T12:44:41;101998.16;;;13.24;100.00
32033;BME280;31720;52.638;9.216;2023-05-24T12:47:44;102006.38;;;13.16;100.00
32033;BME280;31720;52.638;9.216;2023-05-24T12:50:45;101998.28;;;13.00;100.00
32033;BME280;31720;52.638;9.216;2023-05-24T12:53:48;102006.81;;;12.85;100.00
32033;BME280;31720;52.638;9.216;2023-05-24T12:56:49;102013.31;;;12.78;100.00
32033;BME280;31720;52.638;9.216;2023-05-24T12:59:51;102016.25;;;12.70;100.00
32033;BME280;31720;52.638;9.216;2023-05-24T13:02:52;102018.13;;;12.68;100.00
32033;BME280;31720;52.638;9.216;2023-05-24T13:05:56;102011.38;;;12.61;100.00
32033;BME280;31720;52.638;9.216;2023-05-24T13:08:59;102013.44;;;12.53;100.00
32033;BME280;31720;52.638;9.216;2023-05-24T13:12:01;102016.56;;;12.62;100.00
32033;BME280;31720;52.638;9.216;2023-05-24T13:15:03;102014.19;;;12.56;100.00
32033;BME280;31720;52.638;9.216;2023-05-24T13:18:05;102019.59;;;12.53;100.00
32033;BME280;31720;52.638;9.216;2023-05-24T13:21:06;102024.00;;;12.53;100.00
32033;BME280;31720;52.638;9.216;2023-05-24T13:24:09;102023.78;;;12.59;100.00
32033;BME280;31720;52.638;9.216;2023-05-24T13:27:10;102019.34;;;12.59;100.00
32033;BME280;31720;52.638;9.216;2023-05-24T13:30:12;102021.31;;;12.54;100.00
32033;BME280;31720;52.638;9.216;2023-05-24T13:33:13;102011.63;;;12.55;100.00
32033;BME280;31720;52.638;9.216;2023-05-24T13:36:15;102019.78;;;12.49;100.00
32033;BME280;31720;52.638;9.216;2023-05-24T13:39:19;102013.31;;;12.78;100.00
32033;BME280;31720;52.638;9.216;2023-05-24T13:42:20;102010.75;;;12.97;100.00
32033;BME280;31720;52.638;9.216;2023-05-24T13:45:22;102006.75;;;13.07;100.00
32033;BME280;31720;52.638;9.216;2023-05-24T13:48:23;102003.06;;;13.11;100.00
32033;BME280;31720;52.638;9.216;2023-05-24T13:51:25;102011.59;;;13.38;100.00
32033;BME280;31720;52.638;9.216;2023-05-24T13:54:27;102013.47;;;13.55;100.00
32033;BME280;31720;52.638;9.216;2023-05-24T13:57:29;102003.38;;;13.44;100.00
32033;BME280;31720;52.638;9.216;2023-05-24T14:00:31;102004.53;;;13.38;100.00
32033;BME280;31720;52.638;9.216;2023-05-24T14:03:33;102006.78;;;13.27;100.00
32033;BME280;31720;52.638;9.216;2023-05-24T14:06:35;102005.22;;;13.21;100.00
32033;BME280;31720;52.638;9.216;2023-05-24T14:09:38;102008.78;;;13.22;100.00
32033;BME280;31720;52.638;9.216;2023-05-24T14:12:40;102007.84;;;13.23;100.00
32033;BME280;31720;52.638;9.216;2023-05-24T14:15:42;102008.44;;;13.30;100.00
32033;BME280;31720;52.638;9.216;2023-05-24T14:18:45;102009.16;;;13.33;100.00
32033;BME280;31720;52.638;9.216;2023-05-24T14:21:48;102012.72;;;13.32;100.00
32033;BME280;31720;52.638;9.216;2023-05-24T14:24:50;102012.66;;;13.34;100.00
32033;BME280;31720;52.638;9.216;2023-05-24T14:27:52;102016.13;;;13.34;100.00
32033;BME280;31720;52.638;9.216;2023-05-24T14:30:53;102015.81;;;13.42;100.00
32033;BME280;31720;52.638;9.216;2023-05-24T14:33:54;102012.75;;;13.51;100.00
32033;BME280;31720;52.638;9.216;2023-05-24T14:36:56;102017.69;;;13.59;100.00
32033;BME280;31720;52.638;9.216;2023-05-24T14:39:58;102023.75;;;13.61;100.00
32033;BME280;31720;52.638;9.216;2023-05-24T14:43:00;102023.84;;;13.59;100.00
32033;BME280;31720;52.638;9.216;2023-05-24T14:46:01;102022.97;;;13.59;100.00
32033;BME280;31720;52.638;9.216;2023-05-24T14:49:02;102019.47;;;13.58;100.00
32033;BME280;31720;52.638;9.216;2023-05-24T14:52:04;102021.59;;;13.50;100.00
32033;BME280;31720;52.638;9.216;2023-05-24T14:55:08;102027.94;;;13.46;100.00
32033;BME280;31720;52.638;9.216;2023-05-24T14:58:10;102028.47;;;13.54;100.00
32033;BME280;31720;52.638;9.216;2023-05-24T15:01:11;102028.47;;;13.54;100.00
32033;BME280;31720;52.638;9.216;2023-05-24T15:04:13;102025.22;;;13.48;100.00
32033;BME280;31720;52.638;9.216;2023-05-24T15:07:14;102035.03;;;13.45;100.00
32033;BME280;31720;52.638;9.216;2023-05-24T15:10:17;102034.66;;;13.53;100.00
32033;BME280;31720;52.638;9.216;2023-05-24T15:13:18;102034.44;;;13.58;100.00
32033;BME280;31720;52.638;9.216;2023-05-24T15:16:19;102036.31;;;13.56;100.00
32033;BME280;31720;52.638;9.216;2023-05-24T15:19:21;102025.75;;;13.56;100.00
32033;BME280;31720;52.638;9.216;2023-05-24T15:22:23;102033.59;;;13.57;100.00
32033;BME280;31720;52.638;9.216;2023-05-24T15:25:27;102037.38;;;13.52;100.00
32033;BME280;31720;52.638;9.216;2023-05-24T15:28:28;102032.38;;;13.45;100.00
32033;BME280;31720;52.638;9.216;2023-05-24T15:31:29;102030.00;;;13.39;100.00
32033;BME280;31720;52.638;9.216;2023-05-24T15:34:31;102028.72;;;13.48;100.00
32033;BME280;31720;52.638;9.216;2023-05-24T15:37:33;102031.13;;;13.54;100.00
32033;BME280;31720;52.638;9.216;2023-05-24T15:40:35;102035.59;;;13.52;100.00
32033;BME280;31720;52.638;9.216;2023-05-24T15:43:41;102038.66;;;13.62;100.00
32033;BME280;31720;52.638;9.216;2023-05-24T15:46:42;102039.25;;;13.68;100.00
32033;BME280;31720;52.638;9.216;2023-05-24T15:49:44;102038.19;;;13.73;100.00